Time;durP1;ratioP1;P1;durP2;ratioP2;P2;SDS_P1;SDS_P2;PMS_P1;PMS_P2;Temp;Humidity;BMP_temperature;BMP_pressure;BME280_temperature;BME280_humidity;BME280_pressure;Samples;Min_cycle;Max_cycle;Signal;HPM_P1;HPM_P2
2022/01/18 00:00:56;;;;;;;;;;;9.10;59.20;;;;;;5055518;28;19915;-69
2022/01/18 00:03:22;;;;;;;;;;;9.10;59.20;;;;;;5047096;28;19962;-70
2022/01/18 00:05:51;;;;;;;;;;;9.10;59.20;;;;;;5055453;28;19909;-69
2022/01/18 00:08:17;;;;;;;;;;;9.10;59.20;;;;;;5055324;28;19920;-69
2022/01/18 00:10:44;;;;;;;;;;;9.10;59.20;;;;;;5070416;28;19913;-70
2022/01/18 00:13:24;;;;;;;;;;;9.10;59.20;;;;;;5054819;28;19909;-70
2022/01/18 00:18:33;;;;;;;;;;;9.10;59.20;;;;;;5054793;28;19930;-70
2022/01/18 00:21:14;;;;;;;;;;;9.10;59.20;;;;;;5055078;28;19916;-72
2022/01/18 00:23:43;;;;;;;;;;;9.10;59.20;;;;;;5054588;28;20256;-70
2022/01/18 00:26:12;;;;;;;;;;;9.10;59.20;;;;;;5054114;28;19915;-70
2022/01/18 00:28:41;;;;;;;;;;;9.10;59.20;;;;;;5054529;28;20423;-70
2022/01/18 00:36:11;;;;;;;;;;;9.20;59.30;;;;;;5074571;28;20016;-70
2022/01/18 00:38:47;;;;;;;;;;;9.20;59.20;;;;;;5061909;28;19909;-70
2022/01/18 00:41:16;;;;;;;;;;;9.20;59.20;;;;;;5054736;28;19916;-70
2022/01/18 00:43:43;;;;;;;;;;;9.20;59.20;;;;;;5054188;28;20276;-70
2022/01/18 00:46:09;;;;;;;;;;;9.20;59.20;;;;;;5054479;28;19915;-70
2022/01/18 00:48:35;;;;;;;;;;;9.20;59.10;;;;;;5054379;28;19912;-70
2022/01/18 00:51:09;;;;;;;;;;;9.30;59.10;;;;;;5069798;28;19913;-70
2022/01/18 00:53:36;;;;;;;;;;;9.30;59.10;;;;;;5053199;28;20335;-70
2022/01/18 00:58:34;;;;;;;;;;;9.30;59.10;;;;;;5054325;28;19909;-70
2022/01/18 01:01:02;;;;;;;;;;;9.30;59.10;;;;;;5054048;28;20315;-70
2022/01/18 01:03:28;;;;;;;;;;;9.30;59.10;;;;;;5052880;28;20007;-70
2022/01/18 01:05:53;;;;;;;;;;;9.40;59.10;;;;;;5053807;28;19948;-70
2022/01/18 01:08:21;;;;;;;;;;;9.40;59.10;;;;;;5052739;28;19960;-70
2022/01/18 01:10:47;;;;;;;;;;;9.30;59.00;;;;;;5053736;28;19917;-70
2022/01/18 01:13:13;;;;;;;;;;;9.40;59.00;;;;;;5053959;28;19909;-70
2022/01/18 01:16:01;;;;;;;;;;;9.40;59.10;;;;;;5053993;28;19955;-70
2022/01/18 01:45:01;;;;;;;;;;;9.40;59.00;;;;;;5053390;28;19952;-70
2022/01/18 01:47:35;;;;;;;;;;;9.40;59.00;;;;;;5052123;28;19940;-70
2022/01/18 01:50:04;;;;;;;;;;;9.40;59.00;;;;;;5053460;28;19919;-70
2022/01/18 01:52:30;;;;;;;;;;;9.40;59.00;;;;;;5053316;28;20020;-70
2022/01/18 01:54:56;;;;;;;;;;;9.40;58.90;;;;;;5053350;28;20003;-70
2022/01/18 01:57:22;;;;;;;;;;;9.40;58.90;;;;;;5053200;28;19909;-70
2022/01/18 01:59:47;;;;;;;;;;;9.40;58.90;;;;;;5051900;28;20003;-70
2022/01/18 02:02:13;;;;;;;;;;;9.40;58.90;;;;;;5053089;28;19915;-70
2022/01/18 02:04:39;;;;;;;;;;;9.40;59.00;;;;;;5068026;28;20280;-70
2022/01/18 02:07:05;;;;;;;;;;;9.40;59.50;;;;;;5053224;28;19909;-70
2022/01/18 02:09:31;;;;;;;;;;;9.40;58.90;;;;;;5052813;28;19960;-70
2022/01/18 02:11:58;;;;;;;;;;;9.40;59.00;;;;;;5051302;28;19916;-70
2022/01/18 02:14:25;;;;;;;;;;;9.40;58.90;;;;;;5052810;28;20256;-70
2022/01/18 02:22:20;;;;;;;;;;;9.30;58.90;;;;;;5052799;28;20323;-70
2022/01/18 02:24:46;;;;;;;;;;;9.30;58.90;;;;;;5067930;28;19913;-70
2022/01/18 02:27:12;;;;;;;;;;;9.30;59.00;;;;;;5053120;28;20007;-70
2022/01/18 02:29:37;;;;;;;;;;;9.30;59.00;;;;;;5054511;28;20015;-70
2022/01/18 02:32:03;;;;;;;;;;;9.30;59.00;;;;;;5072656;28;20311;-70
2022/01/18 02:34:32;;;;;;;;;;;9.30;59.00;;;;;;5072968;28;19920;-70
2022/01/18 02:36:57;;;;;;;;;;;9.30;59.00;;;;;;5072201;28;19952;-70
2022/01/18 02:39:24;;;;;;;;;;;9.30;59.00;;;;;;5050945;28;20407;-70
2022/01/18 02:41:53;;;;;;;;;;;9.30;59.00;;;;;;5052526;28;19921;-70
2022/01/18 02:44:19;;;;;;;;;;;9.30;59.00;;;;;;5052563;28;19909;-70
2022/01/18 02:46:45;;;;;;;;;;;9.30;59.00;;;;;;5052553;28;19912;-70
2022/01/18 02:49:11;;;;;;;;;;;9.30;59.00;;;;;;5052530;28;19912;-70
2022/01/18 02:51:37;;;;;;;;;;;9.30;59.00;;;;;;5056381;28;19913;-71
2022/01/18 02:54:04;;;;;;;;;;;9.40;59.00;;;;;;5056228;28;19909;-70
2022/01/18 02:56:35;;;;;;;;;;;9.40;59.00;;;;;;5056305;28;20399;-70
2022/01/18 02:59:23;;;;;;;;;;;9.40;59.00;;;;;;5038517;28;19970;-70
2022/01/18 03:04:37;;;;;;;;;;;9.30;59.00;;;;;;5056442;28;19955;-70
2022/01/18 03:07:03;;;;;;;;;;;9.40;59.00;;;;;;5056280;28;20304;-71
2022/01/18 03:09:29;;;;;;;;;;;9.40;59.00;;;;;;5055986;28;19928;-70
2022/01/18 03:11:55;;;;;;;;;;;9.30;58.90;;;;;;5056331;28;20386;-71
2022/01/18 03:14:21;;;;;;;;;;;9.30;58.90;;;;;;5037950;28;19915;-71
2022/01/18 03:16:46;;;;;;;;;;;9.40;59.00;;;;;;5056188;28;20267;-70
2022/01/18 03:19:12;;;;;;;;;;;9.30;58.90;;;;;;5055812;28;19928;-71
2022/01/18 03:21:38;;;;;;;;;;;9.30;58.90;;;;;;5056022;28;19908;-70
2022/01/18 03:29:31;;;;;;;;;;;9.30;58.90;;;;;;5075791;28;19934;-71
2022/01/18 03:31:57;;;;;;;;;;;9.30;59.00;;;;;;5075838;28;19920;-70
2022/01/18 03:34:23;;;;;;;;;;;9.30;58.90;;;;;;5057709;28;19958;-70
2022/01/18 03:36:51;;;;;;;;;;;9.30;58.90;;;;;;5057502;28;19961;-70
2022/01/18 03:39:16;;;;;;;;;;;9.30;58.90;;;;;;5075083;28;20360;-70
2022/01/18 03:41:45;;;;;;;;;;;9.30;58.80;;;;;;5075354;28;19915;-70
2022/01/18 03:44:11;;;;;;;;;;;9.30;58.90;;;;;;5057524;28;19909;-70
2022/01/18 03:46:37;;;;;;;;;;;9.30;58.90;;;;;;5075655;28;19917;-70
2022/01/18 03:49:04;;;;;;;;;;;9.30;58.90;;;;;;5057444;28;19951;-70
2022/01/18 03:51:33;;;;;;;;;;;9.40;58.90;;;;;;5075240;28;20407;-70
2022/01/18 03:53:58;;;;;;;;;;;9.30;58.90;;;;;;5075447;28;19908;-70
2022/01/18 03:56:24;;;;;;;;;;;9.30;58.90;;;;;;5057561;28;19935;-70
2022/01/18 03:58:50;;;;;;;;;;;9.30;58.90;;;;;;5075002;28;19908;-70
2022/01/18 04:01:15;;;;;;;;;;;9.30;58.80;;;;;;5074193;28;20010;-71
2022/01/18 04:03:41;;;;;;;;;;;9.30;58.80;;;;;;5075261;28;19909;-70
2022/01/18 04:06:07;;;;;;;;;;;9.30;58.70;;;;;;5075293;28;19919;-70
2022/01/18 04:08:33;;;;;;;;;;;9.20;58.70;;;;;;5075143;28;19909;-70
2022/01/18 04:10:58;;;;;;;;;;;9.20;58.70;;;;;;5075067;28;19919;-70
2022/01/18 04:13:24;;;;;;;;;;;9.20;58.70;;;;;;5075100;28;19970;-70
2022/01/18 04:15:50;;;;;;;;;;;9.20;58.70;;;;;;5090704;28;19915;-70
2022/01/18 04:28:53;;;;;;;;;;;9.10;58.70;;;;;;5074692;28;19913;-70
2022/01/18 04:31:18;;;;;;;;;;;9.00;58.70;;;;;;5074858;28;19913;-70
2022/01/18 04:33:44;;;;;;;;;;;9.00;58.70;;;;;;5056696;28;19912;-70
2022/01/18 04:36:10;;;;;;;;;;;9.00;58.70;;;;;;5074885;28;19935;-70
2022/01/18 04:38:36;;;;;;;;;;;8.90;58.60;;;;;;5053145;28;19916;-70
2022/01/18 04:41:07;;;;;;;;;;;8.90;58.60;;;;;;5053263;28;19916;-70
2022/01/18 04:48:59;;;;;;;;;;;8.70;58.50;;;;;;5054390;28;19934;-70
2022/01/18 04:51:24;;;;;;;;;;;8.70;58.50;;;;;;5054068;28;19995;-70
2022/01/18 04:53:56;;;;;;;;;;;8.60;58.30;;;;;;5069869;28;20001;-70
2022/01/18 04:59:08;;;;;;;;;;;8.40;58.20;;;;;;5054841;28;19909;-70
2022/01/18 05:01:34;;;;;;;;;;;8.30;58.20;;;;;;5052785;28;19946;-70
2022/01/18 05:04:00;;;;;;;;;;;8.20;58.20;;;;;;5053826;28;19931;-70
2022/01/18 05:06:26;;;;;;;;;;;8.10;58.30;;;;;;5052619;28;20333;-70
2022/01/18 05:08:52;;;;;;;;;;;8.00;58.30;;;;;;5054211;28;19912;-70
2022/01/18 05:11:20;;;;;;;;;;;7.90;58.40;;;;;;5053931;28;19913;-70
2022/01/18 05:19:25;;;;;;;;;;;7.60;58.50;;;;;;5053293;28;19928;-70
2022/01/18 05:24:21;;;;;;;;;;;7.50;58.80;;;;;;5064853;28;19909;-70
2022/01/18 05:26:46;;;;;;;;;;;7.40;58.80;;;;;;5073254;28;19913;-70
2022/01/18 05:29:12;;;;;;;;;;;7.30;58.80;;;;;;5073367;28;19912;-70
2022/01/18 05:31:42;;;;;;;;;;;7.20;58.70;;;;;;5073171;28;19993;-69
2022/01/18 05:34:10;;;;;;;;;;;7.20;58.90;;;;;;5073733;28;19908;-69
2022/01/18 05:36:38;;;;;;;;;;;7.10;58.80;;;;;;5055363;28;19939;-70
2022/01/18 05:39:04;;;;;;;;;;;7.00;58.90;;;;;;5051835;28;20277;-70
2022/01/18 05:41:30;;;;;;;;;;;7.00;59.00;;;;;;5052138;28;20368;-70
2022/01/18 05:43:56;;;;;;;;;;;6.90;59.00;;;;;;5053764;28;19912;-70
2022/01/18 05:46:21;;;;;;;;;;;6.80;59.10;;;;;;5053282;28;19952;-70
2022/01/18 05:48:47;;;;;;;;;;;6.80;59.20;;;;;;5053031;28;20264;-70
2022/01/18 05:51:13;;;;;;;;;;;6.70;59.30;;;;;;5036231;28;19913;-70
2022/01/18 05:53:39;;;;;;;;;;;6.70;59.30;;;;;;5053406;28;19951;-70
2022/01/18 05:56:12;;;;;;;;;;;6.60;59.30;;;;;;5053427;28;19935;-70
2022/01/18 05:58:44;;;;;;;;;;;6.60;59.40;;;;;;5054002;28;19916;-70
2022/01/18 06:01:13;;;;;;;;;;;6.50;59.40;;;;;;5054042;28;19955;-70
2022/01/18 06:06:50;;;;;;;;;;;6.50;59.50;;;;;;5053616;28;20345;-70
2022/01/18 06:09:12;;;;;;;;;;;6.40;59.50;;;;;;5053773;28;19919;-70
2022/01/18 06:11:40;;;;;;;;;;;6.30;59.60;;;;;;5054142;28;19959;-70
2022/01/18 06:14:06;;;;;;;;;;;6.30;60.20;;;;;;5035824;28;19913;-70
2022/01/18 06:16:31;;;;;;;;;;;6.20;59.60;;;;;;5053614;28;19920;-70
2022/01/18 06:18:57;;;;;;;;;;;6.20;59.60;;;;;;5032262;28;19925;-70
2022/01/18 06:21:23;;;;;;;;;;;6.10;59.70;;;;;;5053357;28;19916;-70
2022/01/18 06:23:54;;;;;;;;;;;6.10;59.80;;;;;;5071222;28;20020;-70
2022/01/18 06:26:19;;;;;;;;;;;6.10;59.90;;;;;;5073673;28;19915;-70
2022/01/18 06:28:45;;;;;;;;;;;6.10;59.90;;;;;;5073536;28;19912;-70
2022/01/18 06:31:12;;;;;;;;;;;6.10;60.00;;;;;;5073826;28;19919;-70
2022/01/18 06:33:40;;;;;;;;;;;6.10;60.20;;;;;;5073217;28;19916;-70
2022/01/18 06:36:05;;;;;;;;;;;6.10;60.30;;;;;;5073064;28;19913;-70
2022/01/18 06:38:31;;;;;;;;;;;6.10;60.50;;;;;;5073432;28;20270;-70
2022/01/18 06:40:57;;;;;;;;;;;6.10;60.60;;;;;;5073389;28;20022;-69
2022/01/18 06:43:22;;;;;;;;;;;6.10;60.80;;;;;;5055371;28;19909;-70
2022/01/18 06:45:48;;;;;;;;;;;6.20;61.00;;;;;;5073093;28;20363;-69
2022/01/18 06:48:14;;;;;;;;;;;6.20;61.10;;;;;;5073665;28;20364;-70
2022/01/18 06:50:40;;;;;;;;;;;6.30;61.30;;;;;;5073624;28;20241;-70
2022/01/18 06:53:05;;;;;;;;;;;6.30;61.40;;;;;;5072991;28;19938;-70
2022/01/18 06:55:31;;;;;;;;;;;6.40;61.50;;;;;;5073307;28;19959;-70
2022/01/18 06:57:57;;;;;;;;;;;6.40;61.50;;;;;;5055328;28;19909;-70
2022/01/18 07:00:22;;;;;;;;;;;6.50;61.50;;;;;;5073183;28;19908;-70
2022/01/18 07:02:48;;;;;;;;;;;6.50;61.40;;;;;;5073384;28;19959;-70
2022/01/18 07:05:16;;;;;;;;;;;6.60;61.40;;;;;;5072936;28;19935;-70
2022/01/18 07:07:42;;;;;;;;;;;6.60;61.30;;;;;;5054993;28;19908;-70
2022/01/18 07:10:08;;;;;;;;;;;6.60;61.20;;;;;;5072825;28;19913;-70
2022/01/18 07:12:35;;;;;;;;;;;6.70;61.20;;;;;;5055115;28;20027;-70
2022/01/18 07:15:07;;;;;;;;;;;6.70;61.10;;;;;;5055061;28;19915;-70
2022/01/18 07:17:37;;;;;;;;;;;6.60;60.90;;;;;;5073241;28;19912;-70
2022/01/18 07:20:03;;;;;;;;;;;6.60;60.80;;;;;;5072433;28;19932;-70
2022/01/18 07:22:29;;;;;;;;;;;6.60;60.80;;;;;;5072643;28;19916;-70
2022/01/18 07:24:57;;;;;;;;;;;6.60;60.80;;;;;;5072687;28;19909;-70
2022/01/18 07:27:23;;;;;;;;;;;6.50;61.10;;;;;;5072922;28;19915;-70
2022/01/18 07:29:50;;;;;;;;;;;6.50;60.70;;;;;;5054926;28;19920;-70
2022/01/18 07:32:16;;;;;;;;;;;6.50;60.70;;;;;;5033708;28;20019;-70
2022/01/18 07:34:51;;;;;;;;;;;6.40;60.60;;;;;;5052066;28;19952;-70
2022/01/18 07:37:17;;;;;;;;;;;6.40;60.70;;;;;;5055859;28;20363;-70
2022/01/18 07:39:43;;;;;;;;;;;6.40;60.70;;;;;;5056139;28;19905;-70
2022/01/18 07:42:09;;;;;;;;;;;6.40;60.90;;;;;;5056154;28;19955;-70
2022/01/18 07:44:34;;;;;;;;;;;6.40;61.00;;;;;;5071514;28;19909;-70
2022/01/18 07:47:00;;;;;;;;;;;6.40;61.40;;;;;;5056218;28;20303;-70
2022/01/18 07:49:25;;;;;;;;;;;6.50;61.70;;;;;;5056006;28;19958;-70
2022/01/18 07:51:51;;;;;;;;;;;6.50;61.80;;;;;;5056263;28;20374;-70
2022/01/18 07:54:17;;;;;;;;;;;6.60;61.90;;;;;;5055686;28;20261;-70
2022/01/18 07:56:44;;;;;;;;;;;6.70;62.10;;;;;;5056164;28;20304;-70
2022/01/18 07:59:10;;;;;;;;;;;6.80;62.40;;;;;;5055486;28;19912;-71
2022/01/18 08:01:36;;;;;;;;;;;6.90;62.40;;;;;;5055623;28;19908;-70
2022/01/18 08:04:01;;;;;;;;;;;7.00;62.60;;;;;;5055401;28;20237;-70
2022/01/18 08:06:27;;;;;;;;;;;7.10;62.60;;;;;;5038133;28;20299;-70
2022/01/18 08:08:53;;;;;;;;;;;7.20;62.40;;;;;;5037227;28;20016;-70
2022/01/18 08:11:18;;;;;;;;;;;7.40;62.30;;;;;;5056076;28;20349;-70
2022/01/18 08:13:48;;;;;;;;;;;7.40;62.10;;;;;;5037835;28;19905;-71
2022/01/18 08:16:47;;;;;;;;;;;7.50;61.90;;;;;;5055832;28;20012;-70
2022/01/18 08:19:03;;;;;;;;;;;7.60;62.60;;;;;;5065816;28;19927;-70
2022/01/18 08:21:29;;;;;;;;;;;7.70;61.80;;;;;;5075587;28;19931;-70
2022/01/18 08:23:55;;;;;;;;;;;7.80;61.70;;;;;;5057899;28;19904;-71
2022/01/18 08:26:20;;;;;;;;;;;7.90;61.60;;;;;;5075853;28;20339;-71
2022/01/18 08:28:46;;;;;;;;;;;7.90;61.40;;;;;;5075889;28;19960;-71
2022/01/18 08:31:12;;;;;;;;;;;8.00;61.40;;;;;;5057935;28;20011;-70
2022/01/18 08:33:38;;;;;;;;;;;8.10;61.30;;;;;;5075845;28;19911;-70
2022/01/18 08:36:07;;;;;;;;;;;8.10;61.30;;;;;;5075958;28;19965;-71
2022/01/18 08:38:33;;;;;;;;;;;8.20;61.20;;;;;;5057862;28;19974;-70
2022/01/18 08:40:59;;;;;;;;;;;8.30;61.10;;;;;;5075726;28;19947;-70
2022/01/18 08:43:25;;;;;;;;;;;8.30;61.00;;;;;;5091191;28;20336;-70
2022/01/18 08:45:51;;;;;;;;;;;8.40;60.90;;;;;;5075282;28;19912;-70
2022/01/18 08:48:17;;;;;;;;;;;8.50;60.90;;;;;;5056987;28;20264;-71
2022/01/18 08:50:45;;;;;;;;;;;8.60;60.80;;;;;;5075469;28;19913;-70
2022/01/18 08:53:11;;;;;;;;;;;8.70;60.80;;;;;;5075713;28;19952;-71
2022/01/18 08:55:36;;;;;;;;;;;8.70;60.50;;;;;;5074871;28;19962;-70
2022/01/18 08:58:02;;;;;;;;;;;8.80;60.50;;;;;;5075745;28;19904;-71
2022/01/18 09:00:28;;;;;;;;;;;8.90;60.40;;;;;;5057515;28;19904;-70
2022/01/18 09:02:54;;;;;;;;;;;9.00;60.10;;;;;;5090670;28;19905;-71
2022/01/18 09:05:23;;;;;;;;;;;9.00;59.90;;;;;;5075300;28;19915;-71
2022/01/18 09:07:53;;;;;;;;;;;9.10;59.80;;;;;;5056710;28;19911;-72
2022/01/18 09:10:19;;;;;;;;;;;9.20;59.70;;;;;;5074865;28;20295;-72
2022/01/18 09:12:45;;;;;;;;;;;9.20;59.70;;;;;;5074950;28;19920;-71
2022/01/18 09:15:12;;;;;;;;;;;9.30;59.70;;;;;;5074924;28;19951;-71
2022/01/18 09:17:38;;;;;;;;;;;9.40;59.70;;;;;;5056849;28;19909;-71
2022/01/18 09:20:05;;;;;;;;;;;9.40;59.70;;;;;;5074214;28;19921;-71
2022/01/18 09:22:37;;;;;;;;;;;9.50;59.70;;;;;;5074443;28;20361;-71
2022/01/18 09:25:06;;;;;;;;;;;9.60;59.50;;;;;;5074658;28;19912;-71
2022/01/18 09:27:31;;;;;;;;;;;9.70;59.30;;;;;;5089970;28;19987;-71
2022/01/18 09:29:57;;;;;;;;;;;9.80;59.20;;;;;;5074847;28;20003;-71
2022/01/18 09:32:23;;;;;;;;;;;9.80;59.00;;;;;;5074638;28;19909;-71
2022/01/18 09:34:51;;;;;;;;;;;9.90;58.90;;;;;;5074764;28;19958;-71
2022/01/18 09:37:17;;;;;;;;;;;9.90;58.60;;;;;;5074442;28;19909;-71
2022/01/18 09:39:43;;;;;;;;;;;10.00;58.70;;;;;;5056408;28;20314;-71
2022/01/18 09:42:10;;;;;;;;;;;10.00;58.50;;;;;;5056363;28;19904;-71
2022/01/18 09:44:35;;;;;;;;;;;10.10;58.30;;;;;;5073910;28;19908;-71
2022/01/18 09:47:01;;;;;;;;;;;10.10;58.30;;;;;;5074134;28;19999;-71
2022/01/18 09:49:27;;;;;;;;;;;10.10;58.30;;;;;;5073950;28;19908;-71
2022/01/18 09:51:53;;;;;;;;;;;10.20;58.30;;;;;;5074299;28;19915;-71
2022/01/18 09:54:19;;;;;;;;;;;10.20;58.10;;;;;;5056240;28;20387;-71
2022/01/18 09:56:44;;;;;;;;;;;10.20;57.80;;;;;;5074455;28;19904;-71
2022/01/18 09:59:10;;;;;;;;;;;10.20;57.70;;;;;;5073158;28;19947;-71
2022/01/18 10:01:36;;;;;;;;;;;10.10;57.50;;;;;;5074148;28;20294;-71
2022/01/18 10:04:15;;;;;;;;;;;10.10;57.30;;;;;;5073914;28;19904;-71
2022/01/18 10:06:43;;;;;;;;;;;10.00;57.50;;;;;;5074324;28;19958;-71
2022/01/18 10:09:12;;;;;;;;;;;10.00;57.60;;;;;;5074298;28;19961;-71
2022/01/18 10:11:58;;;;;;;;;;;10.00;57.60;;;;;;5073601;28;19908;-71
2022/01/18 10:14:26;;;;;;;;;;;10.00;57.60;;;;;;5066024;28;19926;-71
2022/01/18 10:16:52;;;;;;;;;;;10.00;57.60;;;;;;5073674;28;20237;-70
2022/01/18 10:19:30;;;;;;;;;;;10.00;57.80;;;;;;5073579;28;19946;-71
2022/01/18 10:22:06;;;;;;;;;;;10.10;57.90;;;;;;5073810;28;19935;-71
2022/01/18 10:24:34;;;;;;;;;;;10.20;57.70;;;;;;5073757;28;19905;-71
2022/01/18 10:27:00;;;;;;;;;;;10.40;57.40;;;;;;5089268;28;20252;-70
2022/01/18 10:29:33;;;;;;;;;;;10.40;56.50;;;;;;5073595;28;19913;-70
2022/01/18 10:32:09;;;;;;;;;;;10.40;56.10;;;;;;5055641;28;20209;-71
2022/01/18 10:37:12;;;;;;;;;;;10.40;55.70;;;;;;5073269;28;19966;-70
2022/01/18 10:39:39;;;;;;;;;;;10.40;55.40;;;;;;5055525;28;19930;-70
2022/01/18 10:42:17;;;;;;;;;;;10.30;55.20;;;;;;5055545;28;20046;-70
2022/01/18 10:44:45;;;;;;;;;;;10.20;54.90;;;;;;5073444;28;19905;-70
2022/01/18 10:47:11;;;;;;;;;;;10.20;54.70;;;;;;5089207;28;20302;-71
2022/01/18 10:49:44;;;;;;;;;;;10.10;54.50;;;;;;5088816;28;20003;-70
2022/01/18 10:52:14;;;;;;;;;;;10.10;55.20;;;;;;5073349;28;20059;-70
2022/01/18 10:54:44;;;;;;;;;;;10.10;54.70;;;;;;5088734;28;19904;-71
2022/01/18 10:57:12;;;;;;;;;;;10.00;54.60;;;;;;5055390;28;20252;-70
2022/01/18 10:59:38;;;;;;;;;;;10.10;54.80;;;;;;5088861;28;19911;-70
2022/01/18 11:02:30;;;;;;;;;;;10.10;55.00;;;;;;5055439;28;19905;-70
2022/01/18 11:04:56;;;;;;;;;;;10.10;54.90;;;;;;5052791;28;19912;-71
2022/01/18 11:07:23;;;;;;;;;;;10.20;54.90;;;;;;5073013;28;20424;-70
2022/01/18 11:09:51;;;;;;;;;;;10.30;55.00;;;;;;5088631;28;20003;-71
2022/01/18 11:12:20;;;;;;;;;;;10.40;55.10;;;;;;5088098;28;19919;-71
2022/01/18 11:14:49;;;;;;;;;;;10.50;55.00;;;;;;5076320;28;19908;-70
2022/01/18 11:17:24;;;;;;;;;;;10.60;54.60;;;;;;5091550;28;20252;-71
2022/01/18 11:19:50;;;;;;;;;;;10.60;54.20;;;;;;5076764;28;20299;-70
2022/01/18 11:22:17;;;;;;;;;;;10.70;54.30;;;;;;5076744;28;19905;-70
2022/01/18 11:24:43;;;;;;;;;;;10.70;53.80;;;;;;5077048;28;19904;-70
2022/01/18 11:27:13;;;;;;;;;;;10.70;53.20;;;;;;5076585;28;19912;-71
2022/01/18 11:29:39;;;;;;;;;;;10.70;52.60;;;;;;5059196;28;20308;-70
2022/01/18 11:32:05;;;;;;;;;;;10.80;52.70;;;;;;5076751;28;19951;-71
2022/01/18 11:34:55;;;;;;;;;;;10.80;52.40;;;;;;5056911;28;19954;-71
2022/01/18 11:37:27;;;;;;;;;;;10.80;52.20;;;;;;5052637;28;19904;-71
2022/01/18 11:40:00;;;;;;;;;;;10.80;52.00;;;;;;5076043;28;19914;-71
2022/01/18 11:42:46;;;;;;;;;;;10.80;52.40;;;;;;5076127;28;19960;-71
2022/01/18 11:45:23;;;;;;;;;;;10.80;51.70;;;;;;5076037;28;19958;-70
2022/01/18 11:48:08;;;;;;;;;;;10.80;51.80;;;;;;5091587;28;19916;-70
2022/01/18 11:50:37;;;;;;;;;;;10.80;51.80;;;;;;5076161;28;20015;-70
2022/01/18 11:53:25;;;;;;;;;;;10.80;51.80;;;;;;5075936;28;19991;-70
2022/01/18 11:55:52;;;;;;;;;;;10.90;51.70;;;;;;5076044;28;19905;-71
2022/01/18 11:58:17;;;;;;;;;;;10.90;51.50;;;;;;5058044;28;19912;-71
2022/01/18 12:00:49;;;;;;;;;;;10.90;51.10;;;;;;5057735;28;20299;-70
2022/01/18 12:03:41;;;;;;;;;;;10.90;50.70;;;;;;5057698;28;19905;-71
2022/01/18 12:06:06;;;;;;;;;;;10.90;50.60;;;;;;5055584;28;19995;-71
2022/01/18 12:08:37;;;;;;;;;;;11.00;50.50;;;;;;5075420;28;19950;-71
2022/01/18 12:11:04;;;;;;;;;;;11.00;50.50;;;;;;5057821;28;19956;-70
2022/01/18 12:13:32;;;;;;;;;;;11.00;49.80;;;;;;5075397;28;19916;-70
2022/01/18 12:15:58;;;;;;;;;;;11.00;49.70;;;;;;5057052;28;19904;-71
2022/01/18 12:18:29;;;;;;;;;;;11.00;49.50;;;;;;5057245;28;20318;-71
2022/01/18 12:20:56;;;;;;;;;;;11.00;49.70;;;;;;5057794;28;19952;-71
2022/01/18 12:23:41;;;;;;;;;;;11.00;49.80;;;;;;5054295;28;19916;-71
2022/01/18 12:32:04;;;;;;;;;;;11.10;49.70;;;;;;5055446;28;19921;-70
2022/01/18 12:34:44;;;;;;;;;;;11.20;49.60;;;;;;5035725;28;19905;-71
2022/01/18 12:37:24;;;;;;;;;;;11.20;49.40;;;;;;5017705;28;20354;-70
2022/01/18 12:39:58;;;;;;;;;;;11.20;49.60;;;;;;5035650;28;19988;-70
2022/01/18 12:45:13;;;;;;;;;;;11.30;49.40;;;;;;5034571;28;19947;-70
2022/01/18 12:47:52;;;;;;;;;;;11.30;49.30;;;;;;5033446;28;19940;-71
2022/01/18 12:50:23;;;;;;;;;;;11.40;49.10;;;;;;5033714;28;19920;-70
2022/01/18 12:52:57;;;;;;;;;;;11.40;48.70;;;;;;5033838;28;19913;-70
2022/01/18 12:55:30;;;;;;;;;;;11.30;48.50;;;;;;5034661;28;20265;-70
2022/01/18 12:58:00;;;;;;;;;;;11.30;48.50;;;;;;5016817;28;19913;-71
2022/01/18 13:00:26;;;;;;;;;;;11.30;49.20;;;;;;5034667;28;19909;-70
2022/01/18 13:02:54;;;;;;;;;;;11.20;47.80;;;;;;5035213;28;20348;-71
2022/01/18 13:05:23;;;;;;;;;;;11.20;47.50;;;;;;5035068;28;19928;-71
2022/01/18 13:07:56;;;;;;;;;;;11.10;47.30;;;;;;5035027;28;19947;-67
2022/01/18 13:10:33;;;;;;;;;;;11.00;47.00;;;;;;5035215;28;19916;-67
2022/01/18 13:13:00;;;;;;;;;;;11.00;47.30;;;;;;5043968;28;20237;-68
2022/01/18 13:15:39;;;;;;;;;;;11.00;47.60;;;;;;5070268;28;19913;-69
2022/01/18 13:26:27;;;;;;;;;;;11.00;47.80;;;;;;5074755;28;20217;-68
2022/01/18 13:28:52;;;;;;;;;;;11.10;47.90;;;;;;5074458;28;19912;-69
2022/01/18 13:31:20;;;;;;;;;;;11.10;47.20;;;;;;5074243;28;19913;-68
2022/01/18 13:33:56;;;;;;;;;;;11.00;47.30;;;;;;5074720;28;19909;-69
2022/01/18 13:36:22;;;;;;;;;;;11.00;47.30;;;;;;5074314;28;19905;-69
2022/01/18 13:38:52;;;;;;;;;;;11.00;47.20;;;;;;5056553;28;19919;-69
2022/01/18 13:41:17;;;;;;;;;;;10.90;46.90;;;;;;5074152;28;20365;-69
2022/01/18 13:43:47;;;;;;;;;;;10.80;46.90;;;;;;5056285;28;19955;-69
2022/01/18 13:46:26;;;;;;;;;;;10.70;46.90;;;;;;5056355;28;19911;-69
2022/01/18 13:49:04;;;;;;;;;;;10.70;46.90;;;;;;5073704;28;20340;-69
2022/01/18 13:51:30;;;;;;;;;;;10.60;47.00;;;;;;5089807;28;19908;-69
2022/01/18 13:53:59;;;;;;;;;;;10.60;47.30;;;;;;5073951;28;19916;-69
2022/01/18 13:56:26;;;;;;;;;;;10.50;47.00;;;;;;5074225;28;19905;-69
2022/01/18 13:59:05;;;;;;;;;;;10.40;47.00;;;;;;5074054;28;20275;-69
2022/01/18 14:01:35;;;;;;;;;;;10.40;47.30;;;;;;5056013;28;20252;-69
2022/01/18 14:04:14;;;;;;;;;;;10.50;47.60;;;;;;5055932;28;19911;-69
2022/01/18 14:06:40;;;;;;;;;;;10.50;47.70;;;;;;5089346;28;19904;-69
2022/01/18 14:09:07;;;;;;;;;;;10.50;47.70;;;;;;5055840;28;19919;-69
2022/01/18 14:11:35;;;;;;;;;;;10.60;47.90;;;;;;5073986;28;19908;-69
2022/01/18 14:14:13;;;;;;;;;;;10.60;47.80;;;;;;5074108;28;20240;-69
2022/01/18 14:16:44;;;;;;;;;;;10.60;47.70;;;;;;5073582;28;19904;-68
2022/01/18 14:19:10;;;;;;;;;;;10.60;47.70;;;;;;5055441;28;19920;-69
2022/01/18 14:21:37;;;;;;;;;;;10.60;47.60;;;;;;5089212;28;19919;-69
2022/01/18 14:24:08;;;;;;;;;;;10.60;47.50;;;;;;5073654;28;19905;-69
2022/01/18 14:26:35;;;;;;;;;;;10.50;47.30;;;;;;5089205;28;20320;-69
2022/01/18 14:29:02;;;;;;;;;;;10.50;47.10;;;;;;5055740;28;20353;-68
2022/01/18 14:31:28;;;;;;;;;;;10.40;47.00;;;;;;5073605;28;19915;-69
2022/01/18 14:33:56;;;;;;;;;;;10.40;46.90;;;;;;5073578;28;19904;-69
2022/01/18 14:36:21;;;;;;;;;;;10.40;47.20;;;;;;5089403;28;20329;-70
2022/01/18 14:38:47;;;;;;;;;;;10.30;47.10;;;;;;5089280;28;19940;-69
2022/01/18 14:41:20;;;;;;;;;;;10.30;47.20;;;;;;5055560;28;19904;-69
2022/01/18 14:43:46;;;;;;;;;;;10.20;47.30;;;;;;5055212;28;19908;-69
2022/01/18 14:46:25;;;;;;;;;;;10.20;47.30;;;;;;5088394;28;19991;-69
2022/01/18 14:48:53;;;;;;;;;;;10.10;47.20;;;;;;5073310;28;19905;-69
2022/01/18 14:51:18;;;;;;;;;;;10.10;47.20;;;;;;5073017;28;19916;-69
2022/01/18 14:53:44;;;;;;;;;;;10.00;47.20;;;;;;5073342;28;19905;-70
2022/01/18 14:56:10;;;;;;;;;;;9.90;47.10;;;;;;5073416;28;19905;-69
2022/01/18 14:58:36;;;;;;;;;;;9.90;47.10;;;;;;5088818;28;19985;-68
2022/01/18 15:01:04;;;;;;;;;;;9.80;47.20;;;;;;5073061;28;19904;-69
2022/01/18 15:03:30;;;;;;;;;;;9.70;47.20;;;;;;5073583;28;19904;-69
2022/01/18 15:05:55;;;;;;;;;;;9.70;47.20;;;;;;5073094;28;19916;-69
2022/01/18 15:08:22;;;;;;;;;;;9.60;47.20;;;;;;5072919;28;19950;-69
2022/01/18 15:10:48;;;;;;;;;;;9.50;47.20;;;;;;5088662;28;19909;-69
2022/01/18 15:13:14;;;;;;;;;;;9.40;47.30;;;;;;5072957;28;19962;-69
2022/01/18 15:15:39;;;;;;;;;;;9.30;47.30;;;;;;5055134;28;19904;-69
2022/01/18 15:18:05;;;;;;;;;;;9.20;47.40;;;;;;5072899;28;19964;-69
2022/01/18 15:20:31;;;;;;;;;;;9.20;47.50;;;;;;5073483;28;20340;-69
2022/01/18 15:22:57;;;;;;;;;;;9.10;47.60;;;;;;5072990;28;19904;-70
2022/01/18 15:25:24;;;;;;;;;;;9.00;47.60;;;;;;5073155;28;19908;-69
2022/01/18 15:27:50;;;;;;;;;;;8.90;47.70;;;;;;5072754;28;19904;-69
2022/01/18 15:30:16;;;;;;;;;;;8.80;47.80;;;;;;5054903;28;19912;-69
2022/01/18 15:32:43;;;;;;;;;;;8.70;47.80;;;;;;5055128;28;19952;-70
2022/01/18 15:35:10;;;;;;;;;;;8.60;47.90;;;;;;5054865;28;19905;-69
2022/01/18 15:37:36;;;;;;;;;;;8.40;47.90;;;;;;5055104;28;19960;-69
2022/01/18 15:40:04;;;;;;;;;;;8.30;48.00;;;;;;5072869;28;19944;-69
2022/01/18 15:42:30;;;;;;;;;;;8.30;48.20;;;;;;5054655;28;19912;-69
2022/01/18 15:44:56;;;;;;;;;;;8.20;48.30;;;;;;5072478;28;19908;-69
2022/01/18 15:47:21;;;;;;;;;;;8.10;48.40;;;;;;5072960;28;19911;-69
2022/01/18 15:49:47;;;;;;;;;;;8.00;48.50;;;;;;5072390;28;19909;-69
2022/01/18 15:52:13;;;;;;;;;;;7.90;48.60;;;;;;5072975;28;19958;-69
2022/01/18 15:54:38;;;;;;;;;;;7.80;48.60;;;;;;5072657;28;19930;-69
2022/01/18 15:57:07;;;;;;;;;;;7.70;48.70;;;;;;5088502;28;19927;-69
2022/01/18 15:59:41;;;;;;;;;;;7.60;48.80;;;;;;5076342;28;19905;-69
2022/01/18 16:02:07;;;;;;;;;;;7.50;48.90;;;;;;5058248;28;19905;-68
2022/01/18 16:04:33;;;;;;;;;;;7.50;49.00;;;;;;5075833;28;19947;-69
2022/01/18 16:06:59;;;;;;;;;;;7.40;49.10;;;;;;5076172;28;19919;-69
2022/01/18 16:09:25;;;;;;;;;;;7.30;49.20;;;;;;5076017;28;19909;-68
2022/01/18 16:11:51;;;;;;;;;;;7.20;49.30;;;;;;5076097;28;19909;-68